Weather at Doctors Medical Center Heliport [CLOSED]

Public forecast

Using degrees Fahrenheit for public forecast. Weather courtesy of forecast.io.

Closest aviation weather report (METAR) to Doctors Medical Center Heliport

Closest report is Buchanan Field, 13.4 nm (24.9 km) E.

2024/05/30 19:53 (retrieved 9 minutes ago)

KCCR 301953Z 10SM CLR 29/04 A2994 RMK AO2 SLP127 T02890044

Closest aviation forecast (TAF) to Doctors Medical Center Heliport

Closest forecast is Metropolitan Oakland International Airport, 15.1 nm (27.9 km) SSE.

2024/05/30 18:22 (retrieved 2 hours ago)

TAF KOAK 301720Z 3018/3124 30004KT P6SM SKC FM302000 28013KT P6SM SKC FM310400 VRB04KT P6SM SKC FM312000 27011KT P6SM SKC